Newark, OH (43058)

5:58 AM EDT on May 27, 2015 (GMT -0400)
Aerospace Center | | Change Station
CLOSE
Current Station
Personal Weather Station
Location: Heath, OH
Elevation: 903 ft
Nearby Weather Stations

Elev 903 ft 40.02 °N, 82.47 °W | Updated 4 minutes ago

Overcast
Overcast
67.4 °F
Feels Like 67.4 °F
N
4.0
Wind Variable Wind from SSW
Gusts 4.0 mph

Today
High -- | Low -- °F
--% Chance of Precip.
Yesterday
High -- | Low -- °F
Precip. -- in
6:05 AM 8:48 PM
Waxing Gibbous, 66% visible
Pressure 30.06 in
Visibility 10.0 miles
Clouds Few 1300 ft
Overcast 2400 ft
Dew Point 65 °F
Humidity 92%
Rainfall 0.00 in
Snow Depth Not available.
UV 0 out of 12
Pollen 6.30 out of 12
Air Quality Not available.
Flu Activity Local Activity
METAR KVTA 270954Z AUTO 22006KT 10SM FEW013 OVC024 19/18 A3007 RMK AO2 SLP177 T01940178

More Conditions Fewer Conditions

Pressure 30.06 in
Visibility 10.0 miles
Clouds Few 1300 ft
Overcast 2400 ft
Dew Point 65 °F
Humidity 92%
Rainfall 0.00 in
Snow Depth Not available.
UV 0 out of 12
Pollen 6.30 out of 12
Air Quality Not available.
Flu Activity Local Activity
METAR KVTA 270954Z AUTO 22006KT 10SM FEW013 OVC024 19/18 A3007 RMK AO2 SLP177 T01940178

More Conditions Fewer Conditions

10-Day Weather Forecast

Almanac

Astronomy

May. 27, 2015 Rise Set
Actual Time
Civil Twilight
Nautical Twilight
Astronomical Twilight
Moon
Length of Visible Light
Length of Day
Tomorrow will be .
, % of the Moon is Illuminated

Today's Extremes

State Highs State Lows

Community

WunderPhotos

Upload Photos

1,824,635 photos uploaded!

WunderBlogs® & News

Nearby

Air Quality

  Air Quality AQ Index Pollutant
Not available.

Snow Depth

Station Depth Elevation

Earthquake Activity

City Distance Mag. Time & Date
Minimum magnitude displayed is 2.5.

Coastal Water Temperatures

Place Temperature

Stations

Nearby Weather Stations

Station Location Temp. Windchill Dew Point Humidity Wind Precip. Elev Updated Type